createdAt,value
2023-04-18T00:01:16.515Z,12.30
2023-04-18T00:03:46.016Z,12.20
2023-04-18T00:06:14.240Z,12.20
2023-04-18T00:08:41.170Z,12.30
2023-04-18T00:11:08.202Z,12.40
2023-04-18T00:13:35.497Z,12.30
2023-04-18T00:16:02.611Z,12.20
2023-04-18T00:18:29.597Z,12.20
2023-04-18T00:20:56.985Z,12.20
2023-04-18T00:23:28.237Z,12.20
2023-04-18T00:25:55.630Z,12.20
2023-04-18T00:28:22.639Z,12.30
2023-04-18T00:30:49.654Z,12.30
2023-04-18T00:33:16.873Z,12.30
2023-04-18T00:38:36.672Z,12.30
2023-04-18T00:44:14.691Z,12.20
2023-04-18T00:46:41.834Z,12.20
2023-04-18T00:49:09.039Z,12.20
2023-04-18T00:51:36.184Z,12.20
2023-04-18T00:54:07.835Z,12.20
2023-04-18T00:56:36.200Z,12.20
2023-04-18T00:59:03.896Z,12.30
2023-04-18T01:01:31.022Z,12.20
2023-04-18T01:03:58.533Z,12.20
2023-04-18T01:06:26.967Z,12.20
2023-04-18T01:08:56.064Z,12.20
2023-04-18T01:11:23.522Z,12.20
2023-04-18T01:14:20.060Z,12.20
2023-04-18T01:16:48.470Z,12.30
2023-04-18T01:19:19.369Z,12.20
2023-04-18T01:21:49.340Z,12.20
2023-04-18T01:26:52.651Z,12.10
2023-04-18T01:34:40.331Z,12.10
2023-04-18T01:37:07.280Z,12.10
2023-04-18T01:42:09.576Z,12.10
2023-04-18T01:47:39.763Z,12.00
2023-04-18T01:50:07.252Z,12.20
2023-04-18T01:52:34.288Z,12.30
2023-04-18T01:55:02.248Z,12.30
2023-04-18T01:57:29.161Z,12.20
2023-04-18T01:59:56.627Z,12.20
2023-04-18T02:04:59.003Z,12.10
2023-04-18T02:07:26.991Z,12.20
2023-04-18T02:10:16.452Z,12.10
2023-04-18T02:12:45.521Z,12.20
2023-04-18T02:15:12.525Z,12.20
2023-04-18T02:23:10.171Z,12.10
2023-04-18T02:25:37.475Z,12.10
2023-04-18T02:28:05.021Z,12.20
2023-04-18T02:30:32.574Z,12.20
2023-04-18T02:33:00.420Z,12.20
2023-04-18T02:35:27.943Z,12.20
2023-04-18T02:37:55.223Z,12.20
2023-04-18T02:40:22.516Z,12.90
2023-04-18T02:46:02.566Z,12.30
2023-04-18T02:53:43.286Z,12.20
2023-04-18T02:56:10.733Z,12.20
2023-04-18T02:58:37.709Z,12.20
2023-04-18T03:06:40.661Z,12.30
2023-04-18T03:12:02.527Z,12.30
2023-04-18T03:14:29.522Z,12.30
2023-04-18T03:19:32.276Z,12.20
2023-04-18T03:24:32.039Z,12.30
2023-04-18T03:27:00.618Z,12.40
2023-04-18T03:29:27.579Z,12.40
2023-04-18T03:31:54.484Z,12.40
2023-04-18T03:34:21.886Z,12.40
2023-04-18T03:36:49.344Z,12.40
2023-04-18T03:39:18.019Z,12.40
2023-04-18T03:41:44.865Z,12.40
2023-04-18T03:44:12.449Z,12.40
2023-04-18T03:46:39.643Z,12.40
2023-04-18T03:49:13.580Z,12.40
2023-04-18T03:54:16.888Z,12.30
2023-04-18T03:56:45.124Z,12.30
2023-04-18T03:59:12.362Z,12.30
2023-04-18T04:04:24.623Z,12.30
2023-04-18T04:06:51.620Z,12.30
2023-04-18T04:09:18.949Z,12.30
2023-04-18T04:14:22.720Z,12.30
2023-04-18T04:16:49.583Z,12.40
2023-04-18T04:19:16.512Z,12.40
2023-04-18T04:21:44.321Z,12.50
2023-04-18T04:24:42.804Z,12.40
2023-04-18T04:27:11.120Z,12.50
2023-04-18T04:29:39.257Z,12.50
2023-04-18T04:32:08.318Z,12.40
2023-04-18T04:34:35.873Z,12.40
2023-04-18T04:37:03.475Z,12.50
2023-04-18T04:39:30.381Z,12.50
2023-04-18T04:41:57.789Z,12.50
2023-04-18T04:44:26.965Z,12.60
2023-04-18T04:46:56.083Z,12.60
2023-04-18T04:49:23.601Z,12.70
2023-04-18T04:51:50.514Z,12.60
2023-04-18T04:54:17.427Z,12.70
2023-04-18T04:56:44.359Z,12.60
2023-04-18T04:59:11.332Z,12.70
2023-04-18T05:01:41.745Z,12.70
2023-04-18T05:04:09.691Z,12.60
2023-04-18T05:06:40.039Z,12.60
2023-04-18T05:09:07.192Z,12.60
2023-04-18T05:11:34.193Z,12.60
2023-04-18T05:14:01.145Z,12.70
2023-04-18T05:16:28.517Z,12.70
2023-04-18T05:18:56.458Z,12.70
2023-04-18T05:21:26.248Z,12.00
2023-04-18T05:24:05.471Z,12.20
2023-04-18T05:26:32.458Z,13.90
2023-04-18T05:28:59.756Z,12.80
2023-04-18T05:31:30.607Z,12.80
2023-04-18T05:33:57.813Z,12.70
2023-04-18T05:36:24.878Z,12.80
2023-04-18T05:38:51.883Z,12.80
2023-04-18T05:41:18.843Z,12.90
2023-04-18T05:43:54.259Z,13.00
2023-04-18T05:46:29.390Z,13.00
2023-04-18T05:48:57.060Z,13.00
2023-04-18T05:51:24.413Z,13.00
2023-04-18T05:53:51.282Z,13.00
2023-04-18T05:56:18.196Z,13.10
2023-04-18T05:58:46.843Z,13.00
2023-04-18T06:01:18.690Z,13.00
2023-04-18T06:03:45.967Z,13.00
2023-04-18T06:06:13.456Z,13.00
2023-04-18T06:08:40.568Z,13.00
2023-04-18T06:11:08.958Z,13.00
2023-04-18T06:13:36.811Z,13.00
2023-04-18T06:16:04.237Z,13.20
2023-04-18T06:18:31.457Z,13.20
2023-04-18T06:20:58.403Z,13.20
2023-04-18T06:23:25.856Z,13.20
2023-04-18T06:25:52.787Z,13.20
2023-04-18T06:28:20.112Z,13.10
2023-04-18T06:30:46.981Z,13.30
2023-04-18T06:33:14.249Z,13.20
2023-04-18T06:35:41.748Z,13.20
2023-04-18T06:38:10.676Z,13.20
2023-04-18T06:40:37.667Z,13.30
2023-04-18T06:43:04.628Z,13.30
2023-04-18T06:45:31.817Z,13.30
2023-04-18T06:48:01.943Z,13.40
2023-04-18T06:50:29.878Z,13.50
2023-04-18T06:52:56.902Z,13.50
2023-04-18T06:55:24.254Z,13.50
2023-04-18T06:57:51.613Z,13.40
2023-04-18T07:00:18.920Z,13.50
2023-04-18T07:02:46.063Z,13.50
2023-04-18T07:05:13.634Z,13.60
2023-04-18T07:07:40.915Z,13.60
2023-04-18T07:10:09.830Z,13.60
2023-04-18T07:12:36.896Z,13.60
2023-04-18T07:15:04.939Z,13.60
2023-04-18T07:17:32.276Z,13.70
2023-04-18T07:19:59.750Z,13.80
2023-04-18T07:22:26.789Z,13.90
2023-04-18T07:24:53.674Z,14.00
2023-04-18T07:27:20.637Z,14.20
2023-04-18T07:29:47.493Z,14.40
2023-04-18T07:32:14.436Z,14.60
2023-04-18T07:34:41.472Z,14.80
2023-04-18T07:37:08.761Z,14.90
2023-04-18T07:39:36.294Z,15.00
2023-04-18T07:42:04.417Z,15.10
2023-04-18T07:44:33.820Z,15.20
2023-04-18T07:47:00.684Z,15.20
2023-04-18T07:49:27.700Z,15.20
2023-04-18T07:51:54.654Z,15.30
2023-04-18T07:54:21.604Z,15.20
2023-04-18T07:56:48.427Z,15.30
2023-04-18T07:59:15.612Z,15.30
2023-04-18T08:01:42.866Z,15.30
2023-04-18T08:04:09.989Z,15.20
2023-04-18T08:06:37.168Z,15.10
2023-04-18T08:09:05.691Z,15.00
2023-04-18T08:11:34.114Z,15.00
2023-04-18T08:14:02.287Z,15.00
2023-04-18T08:16:29.264Z,15.00
2023-04-18T08:18:56.174Z,14.90
2023-04-18T08:21:23.146Z,14.90
2023-04-18T08:23:50.206Z,14.80
2023-04-18T08:26:17.219Z,14.80
2023-04-18T08:28:46.296Z,14.70
2023-04-18T08:31:15.108Z,14.50
2023-04-18T08:33:42.360Z,14.40
2023-04-18T08:36:09.661Z,14.30
2023-04-18T08:38:36.966Z,14.10
2023-04-18T08:41:03.837Z,14.10
2023-04-18T08:43:31.345Z,14.20
2023-04-18T08:46:00.293Z,14.20
2023-04-18T08:48:30.610Z,14.30
2023-04-18T08:51:01.588Z,14.30
2023-04-18T08:53:28.550Z,14.40
2023-04-18T08:55:57.943Z,14.50
2023-04-18T08:58:27.591Z,14.60
2023-04-18T09:00:55.357Z,14.70
2023-04-18T09:03:40.517Z,14.80
2023-04-18T09:06:16.415Z,14.90
2023-04-18T09:08:44.725Z,15.00
2023-04-18T09:11:25.990Z,15.10
2023-04-18T09:13:56.035Z,15.10
2023-04-18T09:16:23.682Z,15.10
2023-04-18T09:19:18.615Z,15.00
2023-04-18T09:21:48.933Z,15.10
2023-04-18T09:24:21.030Z,15.20
2023-04-18T09:26:50.253Z,15.10
2023-04-18T09:29:18.681Z,15.20
2023-04-18T09:32:01.222Z,15.00
2023-04-18T09:34:30.071Z,15.00
2023-04-18T09:37:13.982Z,14.90
2023-04-18T09:39:44.085Z,13.40
2023-04-18T09:42:11.882Z,15.20
2023-04-18T09:44:58.126Z,13.80
2023-04-18T09:47:27.223Z,15.50
2023-04-18T09:49:55.804Z,15.40
2023-04-18T09:52:27.589Z,14.10
2023-04-18T09:55:00.146Z,16.00
2023-04-18T09:57:28.859Z,16.00
2023-04-18T10:00:13.432Z,16.00
2023-04-18T10:02:52.274Z,16.10
2023-04-18T10:05:21.521Z,16.20
2023-04-18T10:07:50.881Z,16.30
2023-04-18T10:10:18.460Z,16.30
2023-04-18T10:12:48.054Z,16.60
2023-04-18T10:15:16.104Z,17.00
2023-04-18T10:18:06.033Z,17.60
2023-04-18T10:20:34.952Z,18.50
2023-04-18T10:23:31.476Z,19.20
2023-04-18T10:25:59.494Z,19.60
2023-04-18T10:28:28.179Z,19.60
2023-04-18T10:31:02.996Z,19.60
2023-04-18T10:33:42.768Z,19.20
2023-04-18T10:36:10.266Z,18.80
2023-04-18T10:38:45.762Z,18.40
2023-04-18T10:41:33.494Z,18.10
2023-04-18T10:44:16.244Z,17.60
2023-04-18T10:46:52.577Z,17.20
2023-04-18T10:49:26.575Z,17.00
2023-04-18T10:51:56.545Z,16.80
2023-04-18T10:54:37.588Z,16.70
2023-04-18T10:57:05.782Z,16.90
2023-04-18T10:59:35.104Z,16.90
2023-04-18T11:02:15.491Z,17.10
2023-04-18T11:04:42.433Z,17.20
2023-04-18T11:07:09.419Z,17.50
2023-04-18T11:09:38.608Z,17.70
2023-04-18T11:12:11.097Z,17.70
2023-04-18T11:14:42.578Z,17.60
2023-04-18T11:17:40.140Z,17.40
2023-04-18T11:20:12.852Z,17.10
2023-04-18T11:22:52.686Z,16.80
2023-04-18T11:25:23.948Z,16.50
2023-04-18T11:27:51.740Z,16.50
2023-04-18T11:30:19.204Z,16.50
2023-04-18T11:32:46.368Z,16.50
2023-04-18T11:35:15.517Z,16.50
2023-04-18T11:37:45.652Z,16.60
2023-04-18T11:40:13.842Z,16.70
2023-04-18T11:42:41.984Z,16.80
2023-04-18T11:45:15.626Z,16.70
2023-04-18T11:47:43.542Z,16.80
2023-04-18T11:50:12.979Z,16.90
2023-04-18T11:52:41.485Z,17.00
2023-04-18T11:55:17.429Z,16.90
2023-04-18T11:57:55.488Z,16.80
2023-04-18T12:00:31.278Z,16.70
2023-04-18T12:02:59.490Z,16.30
2023-04-18T12:05:32.093Z,15.90
2023-04-18T12:08:07.373Z,15.30
2023-04-18T12:10:35.924Z,15.10
2023-04-18T12:13:08.060Z,14.90
2023-04-18T12:15:39.418Z,14.50
2023-04-18T12:18:10.223Z,14.30
2023-04-18T12:20:40.150Z,14.10
2023-04-18T12:23:09.069Z,14.20
2023-04-18T12:25:36.665Z,14.20
2023-04-18T12:28:15.183Z,14.30
2023-04-18T12:30:42.746Z,14.40
2023-04-18T12:33:09.689Z,14.60
2023-04-18T12:35:36.827Z,14.60
2023-04-18T12:38:04.746Z,14.60
2023-04-18T12:40:32.178Z,14.70
2023-04-18T12:42:59.759Z,14.90
2023-04-18T12:45:28.480Z,15.10
2023-04-18T12:47:55.679Z,15.40
2023-04-18T12:50:24.846Z,15.60
2023-04-18T12:52:53.231Z,15.90
2023-04-18T12:55:21.555Z,16.20
2023-04-18T12:57:51.744Z,16.60
2023-04-18T13:00:18.657Z,16.90
2023-04-18T13:02:46.251Z,17.20
2023-04-18T13:05:15.738Z,17.50
2023-04-18T13:07:43.406Z,17.90
2023-04-18T13:10:12.382Z,18.10
2023-04-18T13:12:42.643Z,18.40
2023-04-18T13:15:10.664Z,18.80
2023-04-18T13:17:39.139Z,19.10
2023-04-18T13:20:08.631Z,19.20
2023-04-18T13:22:35.867Z,19.30
2023-04-18T13:25:03.183Z,19.40
2023-04-18T13:27:30.303Z,19.70
2023-04-18T13:29:58.304Z,19.60
2023-04-18T13:32:26.481Z,19.40
2023-04-18T13:34:53.501Z,19.40
2023-04-18T13:37:20.368Z,19.30
2023-04-18T13:39:47.515Z,19.50
2023-04-18T13:42:16.283Z,19.40
2023-04-18T13:44:43.942Z,20.00
2023-04-18T13:47:11.031Z,20.50
2023-04-18T13:49:37.930Z,20.60
2023-04-18T13:52:05.510Z,20.90
2023-04-18T13:54:32.889Z,21.40
2023-04-18T13:57:04.627Z,21.50
2023-04-18T13:59:32.638Z,21.40
2023-04-18T14:01:59.950Z,20.60
2023-04-18T14:04:27.412Z,21.20
2023-04-18T14:06:55.113Z,19.50
2023-04-18T14:09:22.298Z,18.80
2023-04-18T14:11:51.072Z,19.30
2023-04-18T14:14:18.650Z,17.70
2023-04-18T14:16:46.134Z,17.50
2023-04-18T14:19:13.276Z,17.30
2023-04-18T14:21:40.500Z,16.90
2023-04-18T14:24:08.704Z,16.60
2023-04-18T14:26:35.718Z,16.40
2023-04-18T14:29:05.932Z,16.50
2023-04-18T14:31:32.971Z,16.40
2023-04-18T14:33:59.977Z,16.40
2023-04-18T14:36:27.802Z,16.40
2023-04-18T14:38:58.345Z,16.40
2023-04-18T14:41:25.671Z,16.50
2023-04-18T14:43:53.554Z,15.90
2023-04-18T14:46:22.727Z,15.50
2023-04-18T14:48:50.211Z,16.30
2023-04-18T14:51:17.621Z,16.30
2023-04-18T14:53:45.754Z,15.70
2023-04-18T14:56:12.812Z,16.60
2023-04-18T14:58:39.669Z,16.40
2023-04-18T15:01:07.133Z,16.30
2023-04-18T15:03:34.720Z,16.10
2023-04-18T15:06:01.900Z,15.90
2023-04-18T15:08:32.755Z,15.60
2023-04-18T15:11:00.027Z,15.40
2023-04-18T15:13:27.388Z,15.40
2023-04-18T15:15:57.943Z,15.20
2023-04-18T15:18:25.536Z,15.10
2023-04-18T15:20:53.818Z,13.60
2023-04-18T15:23:23.782Z,14.70
2023-04-18T15:25:51.227Z,14.70
2023-04-18T15:28:19.411Z,14.70
2023-04-18T15:30:46.832Z,14.70
2023-04-18T15:33:14.122Z,14.70
2023-04-18T15:35:41.012Z,14.70
2023-04-18T15:38:07.917Z,14.90
2023-04-18T15:40:36.332Z,15.00
2023-04-18T15:43:04.105Z,15.00
2023-04-18T15:45:31.334Z,15.10
2023-04-18T15:47:58.730Z,15.10
2023-04-18T15:50:26.145Z,15.20
2023-04-18T15:52:54.410Z,15.20
2023-04-18T15:55:26.639Z,15.20
2023-04-18T15:57:53.515Z,15.10
2023-04-18T16:00:20.835Z,15.10
2023-04-18T16:02:48.428Z,15.00
2023-04-18T16:05:16.065Z,15.00
2023-04-18T16:07:43.155Z,14.90
2023-04-18T16:10:11.272Z,15.00
2023-04-18T16:12:39.530Z,15.00
2023-04-18T16:15:13.159Z,15.00
2023-04-18T16:17:41.664Z,13.80
2023-04-18T16:20:11.574Z,14.00
2023-04-18T16:22:39.237Z,14.20
2023-04-18T16:25:06.765Z,13.80
2023-04-18T16:27:33.793Z,14.70
2023-04-18T16:30:01.206Z,14.60
2023-04-18T16:32:28.207Z,14.50
2023-04-18T16:34:57.983Z,14.40
2023-04-18T16:37:25.060Z,14.40
2023-04-18T16:39:52.051Z,14.20
2023-04-18T16:42:19.290Z,14.20
2023-04-18T16:44:47.403Z,14.10
2023-04-18T16:47:14.396Z,14.10
2023-04-18T16:49:42.087Z,14.10
2023-04-18T16:52:09.289Z,14.00
2023-04-18T16:54:47.135Z,14.00
2023-04-18T16:57:14.157Z,14.00
2023-04-18T16:59:42.000Z,14.00
2023-04-18T17:02:08.959Z,13.90
2023-04-18T17:04:38.304Z,13.80
2023-04-18T17:07:05.619Z,13.80
2023-04-18T17:09:33.045Z,13.70
2023-04-18T17:12:00.153Z,13.70
2023-04-18T17:14:27.043Z,13.70
2023-04-18T17:16:54.456Z,13.70
2023-04-18T17:19:21.416Z,13.70
2023-04-18T17:21:49.193Z,13.70
2023-04-18T17:24:18.722Z,13.80
2023-04-18T17:26:45.705Z,13.70
2023-04-18T17:29:12.943Z,13.70
2023-04-18T17:31:41.598Z,13.70
2023-04-18T17:34:08.708Z,13.70
2023-04-18T17:36:36.071Z,13.70
2023-04-18T17:39:06.769Z,13.70
2023-04-18T17:41:44.819Z,12.30
2023-04-18T17:44:14.555Z,13.60
2023-04-18T17:46:42.140Z,12.00
2023-04-18T17:49:09.005Z,13.50
2023-04-18T17:51:36.220Z,13.60
2023-04-18T17:54:05.176Z,12.70
2023-04-18T17:56:32.730Z,13.50
2023-04-18T17:59:02.246Z,13.60
2023-04-18T18:01:30.468Z,13.50
2023-04-18T18:03:57.591Z,13.60
2023-04-18T18:06:27.934Z,13.70
2023-04-18T18:08:54.800Z,13.60
2023-04-18T18:11:25.080Z,13.50
2023-04-18T18:13:54.659Z,13.50
2023-04-18T18:16:23.192Z,13.50
2023-04-18T18:21:28.725Z,13.50
2023-04-18T18:23:55.664Z,13.50
2023-04-18T18:26:23.085Z,13.50
2023-04-18T18:28:50.248Z,13.40
2023-04-18T18:34:02.726Z,13.40
2023-04-18T18:36:29.784Z,13.40
2023-04-18T18:38:59.207Z,13.30
2023-04-18T18:41:27.571Z,13.30
2023-04-18T18:43:54.512Z,13.30
2023-04-18T18:48:57.179Z,12.80
2023-04-18T18:51:24.147Z,13.30
2023-04-18T18:53:51.028Z,13.30
2023-04-18T18:56:18.930Z,13.30
2023-04-18T18:58:46.203Z,13.40
2023-04-18T19:01:13.190Z,13.40
2023-04-18T19:03:42.943Z,13.50
2023-04-18T19:06:10.164Z,13.50
2023-04-18T19:08:38.800Z,13.50
2023-04-18T19:11:06.707Z,13.50
2023-04-18T19:16:19.270Z,13.60
2023-04-18T19:18:47.354Z,13.50
2023-04-18T19:21:14.305Z,13.50
2023-04-18T19:26:16.572Z,13.40
2023-04-18T19:28:45.686Z,13.40
2023-04-18T19:31:12.669Z,13.50
2023-04-18T19:33:39.523Z,13.50
2023-04-18T19:36:06.528Z,13.50
2023-04-18T19:38:34.867Z,13.50
2023-04-18T19:41:01.814Z,13.50
2023-04-18T19:43:29.151Z,13.50
2023-04-18T19:45:56.264Z,13.50
2023-04-18T19:48:23.101Z,13.50
2023-04-18T19:50:50.177Z,13.40
2023-04-18T19:53:20.640Z,13.40
2023-04-18T19:55:48.833Z,13.40
2023-04-18T20:01:25.930Z,12.70
2023-04-18T20:08:56.659Z,13.40
2023-04-18T20:13:59.446Z,13.30
2023-04-18T20:16:26.658Z,13.30
2023-04-18T20:18:55.011Z,13.30
2023-04-18T20:21:22.179Z,13.30
2023-04-18T20:23:49.827Z,13.30
2023-04-18T20:26:17.205Z,13.20
2023-04-18T20:31:19.617Z,13.20
2023-04-18T20:33:47.570Z,13.30
2023-04-18T20:36:17.652Z,13.30
2023-04-18T20:38:44.640Z,14.90
2023-04-18T20:41:18.140Z,13.40
2023-04-18T20:43:46.055Z,13.30
2023-04-18T20:46:14.054Z,13.30
2023-04-18T20:51:21.813Z,13.30
2023-04-18T20:53:49.201Z,13.20
2023-04-18T20:56:16.146Z,13.30
2023-04-18T21:01:38.518Z,12.40
2023-04-18T21:04:28.249Z,13.30
2023-04-18T21:06:55.420Z,13.20
2023-04-18T21:12:07.727Z,13.30
2023-04-18T21:14:34.755Z,13.20
2023-04-18T21:20:29.393Z,13.20
2023-04-18T21:22:57.267Z,13.20
2023-04-18T21:25:31.872Z,13.20
2023-04-18T21:28:00.663Z,13.30
2023-04-18T21:30:27.595Z,13.30
2023-04-18T21:32:54.994Z,13.20
2023-04-18T21:35:24.099Z,13.20
2023-04-18T21:37:51.821Z,13.20
2023-04-18T21:43:08.044Z,13.10
2023-04-18T21:45:35.785Z,13.10
2023-04-18T21:50:39.387Z,13.10
2023-04-18T21:53:06.261Z,13.10
2023-04-18T21:55:33.270Z,13.10
2023-04-18T21:58:00.970Z,13.10
2023-04-18T22:00:28.848Z,13.10
2023-04-18T22:02:55.818Z,13.10
2023-04-18T22:05:23.229Z,13.00
2023-04-18T22:07:57.610Z,13.00
2023-04-18T22:13:13.915Z,12.90
2023-04-18T22:15:42.377Z,12.80
2023-04-18T22:18:09.859Z,12.80
2023-04-18T22:20:37.637Z,12.80
2023-04-18T22:23:04.679Z,12.80
2023-04-18T22:25:31.700Z,12.90
2023-04-18T22:27:59.031Z,13.00
2023-04-18T22:30:26.485Z,13.00
2023-04-18T22:32:53.510Z,13.00
2023-04-18T22:38:22.878Z,13.10
2023-04-18T22:40:50.174Z,13.10
2023-04-18T22:43:22.727Z,13.00
2023-04-18T22:45:53.350Z,11.60
2023-04-18T22:48:20.727Z,13.00
2023-04-18T22:50:49.784Z,13.00
2023-04-18T22:53:17.506Z,13.00
2023-04-18T23:02:48.361Z,13.10
2023-04-18T23:05:16.211Z,13.10
2023-04-18T23:07:43.095Z,13.00
2023-04-18T23:13:30.806Z,13.10
2023-04-18T23:15:57.721Z,13.00
2023-04-18T23:18:25.026Z,13.10
2023-04-18T23:28:57.880Z,13.20
2023-04-18T23:31:24.896Z,13.10
2023-04-18T23:37:03.873Z,13.00
2023-04-18T23:39:31.213Z,13.00
2023-04-18T23:41:58.103Z,13.10
2023-04-18T23:44:25.163Z,13.10
2023-04-18T23:46:52.059Z,13.00
2023-04-18T23:49:19.005Z,12.90
2023-04-18T23:52:11.900Z,12.90
2023-04-18T23:54:38.749Z,12.80
2023-04-18T23:57:06.141Z,12.80
